Time;durP1;ratioP1;P1;durP2;ratioP2;P2;SDS_P1;SDS_P2;PMS_P1;PMS_P2;Temp;Humidity;BMP_temperature;BMP_pressure;BME280_temperature;BME280_humidity;BME280_pressure;Samples;Min_cycle;Max_cycle;Signal;HPM_P1;HPM_P2
2022/07/03 00:01:53;;;;;;;1.45;1.30;;;;;;;19.70;54.29;101045.53;4958803;28;20042;-86
2022/07/03 00:04:21;;;;;;;3.53;0.82;;;;;;;19.69;54.38;101043.81;4951927;28;20051;-85
2022/07/03 00:06:48;;;;;;;3.75;1.73;;;;;;;19.62;54.34;101040.53;4936752;28;20134;-86
2022/07/03 00:09:21;;;;;;;1.23;1.08;;;;;;;19.53;54.50;101032.94;4965856;28;20169;-86
2022/07/03 00:11:52;;;;;;;0.73;0.73;;;;;;;19.42;54.75;101042.19;4971442;28;20062;-85
2022/07/03 00:14:24;;;;;;;2.42;1.70;;;;;;;19.33;54.64;101039.91;4948278;28;20075;-87
2022/07/03 00:17:03;;;;;;;1.42;1.08;;;;;;;19.25;55.08;101039.34;4961603;28;20047;-86
2022/07/03 00:19:34;;;;;;;1.23;1.13;;;;;;;19.21;55.18;101043.06;4957362;28;20061;-86
2022/07/03 00:22:13;;;;;;;1.27;0.80;;;;;;;19.18;55.06;101038.72;4962261;28;20053;-85
2022/07/03 00:25:00;;;;;;;1.05;1.02;;;;;;;19.16;55.45;101036.13;4937472;28;20054;-86
2022/07/03 00:40:53;;;;;;;2.90;1.13;;;;;;;19.09;55.86;101029.31;5060098;27;20437;-83
2022/07/03 00:43:22;;;;;;;2.55;2.25;;;;;;;19.09;56.29;101031.13;5010476;28;20826;-83
2022/07/03 00:45:51;;;;;;;2.65;1.55;;;;;;;19.06;56.27;101028.56;5056776;28;20044;-84
2022/07/03 00:48:21;;;;;;;2.15;1.42;;;;;;;19.01;56.59;101024.31;5023160;28;20061;-85
2022/07/03 00:50:53;;;;;;;1.77;1.60;;;;;;;18.98;56.54;101027.09;5036750;28;20037;-84
2022/07/03 00:53:34;;;;;;;3.90;1.95;;;;;;;18.95;56.99;101027.19;5025952;28;20065;-85
2022/07/03 00:56:06;;;;;;;1.80;1.52;;;;;;;18.89;56.90;101026.53;5017020;28;20141;-85
2022/07/03 00:58:36;;;;;;;1.70;1.60;;;;;;;18.85;57.14;101020.47;5003118;28;20041;-84
2022/07/03 01:01:04;;;;;;;1.65;1.55;;;;;;;18.78;57.71;101025.16;5036024;28;20045;-83
2022/07/03 01:03:40;;;;;;;2.38;1.40;;;;;;;18.73;57.54;101026.25;5022218;28;20486;-84
2022/07/03 01:06:26;;;;;;;1.20;1.20;;;;;;;18.66;57.74;101022.97;4999656;28;20050;-84
2022/07/03 01:09:19;;;;;;;1.30;1.15;;;;;;;18.59;58.13;101018.78;5018283;28;20045;-84
2022/07/03 01:12:04;;;;;;;2.38;1.17;;;;;;;18.53;57.96;101019.91;5019335;28;20045;-85
2022/07/03 01:14:50;;;;;;;1.25;1.10;;;;;;;18.47;58.08;101022.75;5001082;28;20080;-85
2022/07/03 01:17:36;;;;;;;5.35;1.42;;;;;;;18.40;58.77;101023.91;5024149;28;20042;-85
2022/07/03 01:20:06;;;;;;;1.30;1.25;;;;;;;18.34;58.89;101011.72;5017168;28;20497;-84
2022/07/03 01:22:50;;;;;;;1.17;1.17;;;;;;;18.32;59.33;101010.94;5016510;28;20056;-85
2022/07/03 01:25:46;;;;;;;;;;;;;;;18.28;59.48;101010.16;5032026;28;20152;-85
2022/07/03 01:28:23;;;;;;;1.60;1.50;;;;;;;18.25;59.34;101020.00;5034252;28;19929;-85
2022/07/03 01:30:58;;;;;;;1.60;1.35;;;;;;;18.22;59.87;101014.81;5035049;28;20595;-83
2022/07/03 01:33:30;;;;;;;2.60;1.30;;;;;;;18.17;59.66;101012.31;5021448;28;20057;-83
2022/07/03 01:36:05;;;;;;;1.10;1.00;;;;;;;18.14;59.92;101009.78;5014242;28;20109;-84
2022/07/03 01:38:37;;;;;;;1.42;1.35;;;;;;;18.10;60.27;101000.22;5019573;28;20034;-85
2022/07/03 01:41:09;;;;;;;2.70;1.92;;;;;;;18.06;60.42;101003.91;4998602;28;20550;-83
2022/07/03 01:43:51;;;;;;;1.33;1.23;;;;;;;18.01;61.04;101001.41;5004895;28;20050;-82
2022/07/03 01:46:20;;;;;;;1.40;1.30;;;;;;;17.96;61.29;101001.53;5022041;28;20049;-83
2022/07/03 01:48:49;;;;;;;1.02;1.02;;;;;;;17.93;61.02;100995.50;5004082;28;20425;-85
2022/07/03 01:51:19;;;;;;;1.50;1.40;;;;;;;17.88;61.21;100998.28;5018185;28;20513;-85
2022/07/03 01:53:50;;;;;;;1.33;1.23;;;;;;;17.86;61.23;100990.38;5002732;28;20501;-84
2022/07/03 01:56:20;;;;;;;1.13;1.13;;;;;;;17.89;61.42;100991.22;5005721;28;20077;-84
2022/07/03 01:58:49;;;;;;;1.05;1.05;;;;;;;17.88;61.07;100992.13;5012976;28;20057;-85
2022/07/03 02:01:28;;;;;;;1.10;1.10;;;;;;;17.87;61.31;100980.66;4999331;28;20460;-85
2022/07/03 02:04:35;;;;;;;1.33;0.90;;;;;;;17.87;61.58;100983.28;4995768;28;20133;-84
2022/07/03 02:07:32;;;;;;;1.33;0.88;;;;;;;17.83;61.28;100979.03;4993032;28;20045;-84
2022/07/03 02:10:11;;;;;;;3.72;1.25;;;;;;;17.78;61.58;100984.50;5000681;28;20042;-82
2022/07/03 02:12:58;;;;;;;1.67;1.10;;;;;;;17.75;61.89;100975.78;5010558;28;20527;-82
2022/07/03 02:15:35;;;;;;;1.20;1.00;;;;;;;17.67;62.58;100974.25;4999229;28;20172;-84
2022/07/03 02:18:37;;;;;;;2.33;1.08;;;;;;;17.61;62.87;100971.81;5023732;28;20073;-81
2022/07/03 02:21:20;;;;;;;0.80;0.80;;;;;;;17.57;63.60;100979.91;4973145;28;20133;-83
2022/07/03 02:24:05;;;;;;;0.85;0.85;;;;;;;17.50;63.99;100977.44;5018178;28;20041;-82
2022/07/03 02:26:40;;;;;;;;;;;;;;;17.43;65.04;100983.00;4987926;28;20798;-83
2022/07/03 02:29:18;;;;;;;0.70;0.70;;;;;;;17.41;64.75;100977.75;5007493;28;19972;-84
2022/07/03 02:32:00;;;;;;;1.45;0.80;;;;;;;17.36;64.99;100982.31;5005627;28;20049;-84
2022/07/03 02:34:29;;;;;;;4.78;1.42;;;;;;;17.32;65.20;100978.91;5017580;28;20132;-84
2022/07/03 02:37:07;;;;;;;4.03;0.90;;;;;;;17.32;65.00;100978.06;5007444;28;20046;-83
2022/07/03 02:40:29;;;;;;;0.73;0.70;;;;;;;17.32;65.21;100980.69;5002835;28;20081;-85
2022/07/03 02:43:02;;;;;;;0.98;0.98;;;;;;;17.31;65.04;100982.50;5002470;28;20049;-85
2022/07/03 02:45:45;;;;;;;3.30;1.17;;;;;;;17.35;65.05;100980.59;5004409;28;20072;-84
2022/07/03 02:48:45;;;;;;;1.33;1.25;;;;;;;17.44;64.65;100982.09;5017203;28;20053;-83
2022/07/03 02:51:22;;;;;;;1.85;1.58;;;;;;;17.50;64.29;100972.16;5018287;28;20054;-83
2022/07/03 02:54:17;;;;;;;2.88;1.70;;;;;;;17.64;63.88;100981.44;5035982;28;20054;-86
2022/07/03 02:57:09;;;;;;;1.50;1.40;;;;;;;17.76;62.97;100966.94;5028033;28;20045;-84
2022/07/03 03:00:09;;;;;;;3.22;1.48;;;;;;;17.88;62.72;100974.44;5018452;28;20137;-86
2022/07/03 03:03:01;;;;;;;1.10;1.10;;;;;;;17.94;62.11;100978.69;4994902;28;20053;-85
2022/07/03 03:05:48;;;;;;;1.10;1.00;;;;;;;17.95;61.95;100973.34;5024137;28;20046;-85
2022/07/03 03:08:41;;;;;;;0.98;0.90;;;;;;;17.96;61.55;100966.25;5033054;28;20623;-85
2022/07/03 03:11:23;;;;;;;0.90;0.90;;;;;;;17.92;61.53;100967.25;5006440;28;20100;-84
2022/07/03 03:13:57;;;;;;;1.05;0.80;;;;;;;17.89;61.50;100970.03;5025490;28;20065;-84
2022/07/03 03:16:34;;;;;;;1.20;0.55;;;;;;;17.84;61.91;100960.44;5013558;28;20116;-85
2022/07/03 03:19:02;;;;;;;1.33;0.77;;;;;;;17.82;61.36;100961.41;5011339;28;20050;-85
2022/07/03 03:21:55;;;;;;;0.88;0.88;;;;;;;17.79;61.72;100962.38;5022821;28;20461;-85
2022/07/03 03:24:28;;;;;;;0.73;0.73;;;;;;;17.75;61.69;100959.91;5003219;28;20050;-84
2022/07/03 03:26:59;;;;;;;1.60;0.90;;;;;;;17.73;61.65;100959.94;5004602;28;20136;-84
2022/07/03 03:29:27;;;;;;;0.88;0.65;;;;;;;17.71;61.46;100956.47;5008006;28;20578;-84
2022/07/03 03:31:55;;;;;;;1.70;0.63;;;;;;;17.71;61.40;100951.19;5013991;28;20045;-86
2022/07/03 03:34:23;;;;;;;0.77;0.63;;;;;;;17.69;61.39;100953.00;5010341;28;20128;-84
2022/07/03 03:36:56;;;;;;;4.47;0.85;;;;;;;17.63;61.55;100947.94;4993842;28;20057;-84
2022/07/03 03:39:23;;;;;;;0.90;0.90;;;;;;;17.60;61.82;100946.25;4997602;28;20057;-85
2022/07/03 03:41:52;;;;;;;5.20;1.13;;;;;;;17.58;61.37;100942.78;5023063;28;20375;-85
2022/07/03 03:44:19;;;;;;;1.52;0.95;;;;;;;17.53;61.32;100942.97;4991236;28;20049;-83
2022/07/03 03:46:46;;;;;;;1.48;0.85;;;;;;;17.53;61.50;100942.06;5027461;28;20144;-86
2022/07/03 03:49:15;;;;;;;0.98;0.93;;;;;;;17.52;61.48;100933.28;5027892;28;20139;-83
2022/07/03 03:51:42;;;;;;;1.20;0.90;;;;;;;17.52;61.41;100924.47;5029610;28;20137;-82
2022/07/03 03:54:09;;;;;;;0.82;0.82;;;;;;;17.52;61.23;100927.09;5012198;28;20053;-84
2022/07/03 03:56:36;;;;;;;1.77;0.88;;;;;;;17.54;61.26;100930.56;5013332;28;20049;-83
2022/07/03 03:59:05;;;;;;;6.20;0.95;;;;;;;17.56;61.11;100926.09;5007880;28;20274;-82
2022/07/03 04:01:36;;;;;;;2.33;1.05;;;;;;;17.61;61.01;100936.53;4992671;28;20052;-83
2022/07/03 04:04:03;;;;;;;0.77;0.77;;;;;;;17.62;61.04;100936.47;5003318;28;20080;-84
2022/07/03 04:06:33;;;;;;;3.67;1.08;;;;;;;17.67;60.87;100938.97;5021562;28;20037;-85
2022/07/03 04:09:12;;;;;;;1.13;1.10;;;;;;;17.69;60.98;100935.34;5000328;28;20081;-84
2022/07/03 04:11:38;;;;;;;0.85;0.70;;;;;;;17.74;60.70;100936.97;4999095;28;20652;-83
2022/07/03 04:14:09;;;;;;;2.05;0.55;;;;;;;17.77;60.47;100935.09;4971007;28;20108;-86
2022/07/03 04:16:36;;;;;;;2.53;1.08;;;;;;;17.82;60.32;100938.44;4966474;28;20775;-84
2022/07/03 04:19:03;;;;;;;4.47;1.15;;;;;;;17.88;60.14;100940.00;4983427;28;20457;-83
2022/07/03 04:21:31;;;;;;;2.05;0.82;;;;;;;17.94;59.73;100937.19;4979240;28;20042;-86
2022/07/03 04:23:58;;;;;;;2.20;1.00;;;;;;;18.00;59.57;100941.38;4980215;28;20117;-85
2022/07/03 04:26:41;;;;;;;1.17;0.40;;;;;;;18.04;59.22;100940.34;4982696;28;20074;-83
2022/07/03 04:29:11;;;;;;;1.70;0.70;;;;;;;18.12;59.05;100934.78;4982911;28;20421;-83
2022/07/03 04:31:41;;;;;;;1.10;0.50;;;;;;;18.17;58.87;100939.03;4985649;28;20034;-80
2022/07/03 04:34:08;;;;;;;1.55;0.68;;;;;;;18.23;58.59;100935.28;4982820;28;20293;-83
2022/07/03 04:36:35;;;;;;;1.45;0.73;;;;;;;18.29;58.33;100929.75;4967067;28;20038;-82
2022/07/03 04:39:03;;;;;;;2.83;0.70;;;;;;;18.34;58.15;100934.88;4981166;28;20054;-82
2022/07/03 04:41:30;;;;;;;3.50;0.95;;;;;;;18.39;58.21;100930.25;4968201;28;20054;-84
2022/07/03 04:43:57;;;;;;;1.27;0.85;;;;;;;18.48;57.90;100929.06;4985671;28;20084;-82
2022/07/03 04:46:24;;;;;;;0.73;0.50;;;;;;;18.53;57.75;100924.47;4991030;28;20550;-84
2022/07/03 04:48:51;;;;;;;1.10;0.73;;;;;;;18.57;57.50;100928.72;4993187;28;20045;-84
2022/07/03 04:51:17;;;;;;;0.77;0.50;;;;;;;18.64;57.50;100932.88;4989847;28;20128;-83
2022/07/03 04:53:44;;;;;;;0.65;0.65;;;;;;;18.69;57.31;100930.03;5009670;28;20088;-85
2022/07/03 04:56:11;;;;;;;2.35;0.73;;;;;;;18.75;57.07;100936.91;5005105;28;20042;-84
2022/07/03 04:58:40;;;;;;;1.95;0.50;;;;;;;18.79;56.99;100934.06;4991190;28;20061;-85
2022/07/03 05:01:07;;;;;;;0.60;0.60;;;;;;;18.83;56.62;100925.03;4969696;28;20698;-84
2022/07/03 05:03:34;;;;;;;1.70;0.70;;;;;;;18.90;56.76;100930.16;5007616;28;20444;-82
2022/07/03 05:06:01;;;;;;;0.57;0.55;;;;;;;18.95;56.57;100928.19;4972071;28;20044;-84
2022/07/03 05:08:28;;;;;;;3.15;0.35;;;;;;;19.02;56.31;100935.00;4990168;28;20054;-84
2022/07/03 05:10:55;;;;;;;1.65;0.65;;;;;;;19.07;56.47;100930.34;4987013;28;20038;-81
2022/07/03 05:13:22;;;;;;;2.63;0.88;;;;;;;19.13;56.26;100926.59;4988298;28;20050;-84
2022/07/03 05:15:49;;;;;;;0.85;0.43;;;;;;;19.18;55.90;100927.28;4970868;28;20064;-82
2022/07/03 05:18:19;;;;;;;0.50;0.50;;;;;;;19.24;55.68;100928.78;4992751;28;20053;-82
2022/07/03 05:20:49;;;;;;;0.60;0.60;;;;;;;19.30;55.41;100933.88;5006525;28;20053;-84
2022/07/03 05:23:17;;;;;;;4.65;1.45;;;;;;;19.36;55.23;100930.09;4954204;28;20061;-82
2022/07/03 05:25:43;;;;;;;1.35;0.40;;;;;;;19.39;55.12;100930.81;4973385;28;20057;-82
2022/07/03 05:28:11;;;;;;;0.77;0.50;;;;;;;19.44;54.78;100931.50;4977240;28;20045;-84
2022/07/03 05:30:41;;;;;;;2.85;0.80;;;;;;;19.48;54.72;100925.13;5003851;28;20925;-83
2022/07/03 05:33:08;;;;;;;1.17;0.63;;;;;;;19.54;54.38;100923.16;5004396;28;20057;-84
2022/07/03 05:35:38;;;;;;;2.10;0.60;;;;;;;19.60;54.36;100922.91;4973762;28;20057;-84
2022/07/03 05:38:05;;;;;;;0.68;0.57;;;;;;;19.64;54.19;100930.66;4987634;28;20307;-83
2022/07/03 05:40:31;;;;;;;1.33;0.73;;;;;;;19.70;54.58;100939.28;4982039;28;20086;-82
2022/07/03 05:42:58;;;;;;;0.60;0.60;;;;;;;19.72;54.12;100946.25;4982342;28;20073;-85
2022/07/03 05:45:26;;;;;;;2.42;1.35;;;;;;;19.76;54.43;100950.50;4991203;28;20057;-83
2022/07/03 05:47:55;;;;;;;2.53;0.63;;;;;;;19.79;54.20;100949.50;4987565;28;20061;-83
2022/07/03 05:50:22;;;;;;;0.70;0.70;;;;;;;19.81;54.29;100951.22;4982061;28;20030;-83
2022/07/03 05:52:49;;;;;;;0.45;0.40;;;;;;;19.83;54.28;100951.16;4983051;28;20042;-83
2022/07/03 05:55:16;;;;;;;0.98;0.70;;;;;;;19.85;54.27;100953.75;4981343;28;20403;-82
2022/07/03 05:57:43;;;;;;;4.95;0.60;;;;;;;19.91;53.65;100953.50;4978581;28;20050;-83
2022/07/03 06:00:11;;;;;;;0.85;0.85;;;;;;;19.96;53.78;100952.34;4984823;28;20125;-83
2022/07/03 06:02:40;;;;;;;0.40;0.40;;;;;;;20.03;53.68;100958.25;4983871;28;20069;-82
2022/07/03 06:05:08;;;;;;;1.00;0.95;;;;;;;20.05;53.75;100956.41;4981729;28;20046;-84
2022/07/03 06:07:37;;;;;;;0.52;0.52;;;;;;;20.08;53.87;100952.75;4979857;28;20053;-84
2022/07/03 06:10:07;;;;;;;2.58;0.70;;;;;;;20.09;53.81;100958.00;4984048;28;20050;-86
2022/07/03 06:12:34;;;;;;;1.40;0.57;;;;;;;20.11;53.80;100953.47;4981680;28;20069;-83
2022/07/03 06:15:02;;;;;;;0.70;0.70;;;;;;;20.14;53.90;100958.66;4986040;28;20097;-83
2022/07/03 06:17:28;;;;;;;0.57;0.57;;;;;;;20.13;54.21;100954.28;4971927;28;20676;-85
2022/07/03 06:20:16;;;;;;;1.63;0.40;;;;;;;20.17;54.46;100957.66;4990597;28;20042;-84
2022/07/03 06:22:46;;;;;;;0.55;0.47;;;;;;;20.23;54.32;100960.03;4990480;28;20042;-85
2022/07/03 06:25:13;;;;;;;1.88;0.52;;;;;;;20.27;54.40;100963.41;4986928;28;20062;-84
2022/07/03 06:27:42;;;;;;;4.70;1.35;;;;;;;20.33;54.08;100960.50;4996450;28;20061;-83
2022/07/03 06:30:10;;;;;;;0.38;0.38;;;;;;;20.39;54.02;100962.00;4996307;28;20046;-83
2022/07/03 06:32:37;;;;;;;0.47;0.47;;;;;;;20.48;54.15;100964.25;4999878;28;20043;-83
2022/07/03 06:35:05;;;;;;;2.03;0.70;;;;;;;20.61;53.86;100964.53;4980837;28;20078;-83
2022/07/03 06:37:32;;;;;;;0.63;0.63;;;;;;;20.77;53.45;100962.94;4985067;28;20054;-85
2022/07/03 06:40:02;;;;;;;1.23;0.60;;;;;;;21.01;52.17;100972.50;4987416;28;20066;-82
2022/07/03 06:42:29;;;;;;;0.85;0.50;;;;;;;21.25;51.62;100979.31;4969254;28;20088;-82
2022/07/03 06:44:57;;;;;;;0.70;0.45;;;;;;;21.52;50.64;100972.69;4986453;28;20046;-82
2022/07/03 06:47:24;;;;;;;0.73;0.73;;;;;;;21.81;49.96;100969.47;4973344;28;20088;-83
2022/07/03 06:49:51;;;;;;;0.50;0.50;;;;;;;22.09;48.99;100972.50;4984665;28;20045;-82
2022/07/03 06:52:17;;;;;;;0.43;0.43;;;;;;;22.35;48.72;100973.78;4968013;28;20569;-83
2022/07/03 06:54:44;;;;;;;1.75;0.82;;;;;;;22.62;48.12;100975.94;4984062;28;20043;-83
2022/07/03 06:57:14;;;;;;;1.55;0.65;;;;;;;22.83;47.47;100973.91;4973540;28;20050;-83
2022/07/03 06:59:42;;;;;;;0.77;0.73;;;;;;;22.96;46.95;100971.41;4972021;28;20057;-85
2022/07/03 07:02:09;;;;;;;0.80;0.70;;;;;;;22.90;46.99;100969.09;4976002;28;20056;-87
2022/07/03 07:07:26;;;;;;;1.17;0.75;;;;;;;22.44;47.92;100965.31;4975671;28;20042;-84
2022/07/03 07:09:56;;;;;;;0.90;0.75;;;;;;;22.35;48.36;100964.94;5009771;28;20725;-85
2022/07/03 07:12:28;;;;;;;0.70;0.70;;;;;;;22.33;48.00;100962.31;4982731;28;20351;-86
2022/07/03 07:14:55;;;;;;;1.63;0.50;;;;;;;22.38;47.43;100965.63;4970659;28;20046;-85
2022/07/03 07:17:26;;;;;;;0.47;0.40;;;;;;;22.48;47.33;100963.34;4961727;28;20062;-84
2022/07/03 07:19:55;;;;;;;3.30;0.60;;;;;;;22.60;46.19;100967.16;4988793;28;20114;-85
2022/07/03 07:22:25;;;;;;;1.70;0.55;;;;;;;22.61;46.24;100959.06;4973126;28;20062;-85
2022/07/03 07:24:53;;;;;;;1.08;0.40;;;;;;;22.76;46.21;100964.50;4969484;28;20046;-85
2022/07/03 07:27:22;;;;;;;0.50;0.50;;;;;;;22.94;45.51;100967.97;5005288;28;20201;-85
2022/07/03 07:29:56;;;;;;;0.68;0.68;;;;;;;23.31;44.69;100954.34;4978641;28;20050;-84
2022/07/03 07:32:26;;;;;;;0.77;0.50;;;;;;;23.93;43.62;100963.16;4960602;28;20099;-87
2022/07/03 07:34:54;;;;;;;2.75;0.70;;;;;;;24.80;41.75;100960.53;4979691;28;20108;-86
2022/07/03 07:37:21;;;;;;;0.75;0.50;;;;;;;25.51;40.46;100968.47;4974881;28;20128;-85
2022/07/03 07:39:51;;;;;;;0.90;0.55;;;;;;;26.27;39.41;100972.25;4993530;28;20152;-85
2022/07/03 07:45:07;;;;;;;1.38;0.40;;;;;;;26.87;36.64;100975.19;5016864;28;20038;-88
2022/07/03 07:47:34;;;;;;;2.30;0.60;;;;;;;26.95;37.20;100985.38;5001376;28;20046;-88
2022/07/03 07:53:18;;;;;;;0.70;0.70;;;;;;;27.19;36.31;100993.47;4975326;28;20144;-83
2022/07/03 07:55:50;;;;;;;1.10;0.45;;;;;;;26.86;36.75;100986.91;4995025;28;20050;-84
2022/07/03 07:58:18;;;;;;;0.70;0.70;;;;;;;26.90;37.05;100988.41;4997923;28;20085;-88
2022/07/03 08:06:21;;;;;;;0.70;0.60;;;;;;;28.33;35.50;100994.75;4992413;28;20485;-86
2022/07/03 08:08:49;;;;;;;0.50;0.50;;;;;;;28.67;34.62;100986.72;5004941;28;20790;-85
2022/07/03 08:11:18;;;;;;;0.75;0.68;;;;;;;29.29;34.05;100987.13;5004359;28;20058;-88
2022/07/03 08:13:52;;;;;;;1.75;0.60;;;;;;;29.75;32.36;100983.25;4989448;28;20897;-85
2022/07/03 08:16:19;;;;;;;1.95;0.65;;;;;;;29.94;32.41;100982.53;4977966;28;20038;-84
2022/07/03 08:18:46;;;;;;;1.15;0.40;;;;;;;30.14;31.92;100979.94;5008011;28;20496;-83
2022/07/03 08:21:22;;;;;;;0.93;0.52;;;;;;;30.25;30.41;100979.88;5004611;28;20053;-86
2022/07/03 08:23:49;;;;;;;0.50;0.38;;;;;;;30.54;30.55;100979.19;5008986;28;20058;-85
2022/07/03 08:26:16;;;;;;;1.05;0.40;;;;;;;31.10;29.88;100985.91;5001707;28;20050;-83
2022/07/03 08:28:43;;;;;;;0.32;0.32;;;;;;;31.49;29.09;100985.09;4987385;28;20054;-86
2022/07/03 08:31:15;;;;;;;1.83;0.60;;;;;;;31.54;29.03;100985.53;4996830;28;20104;-85
2022/07/03 08:33:42;;;;;;;0.52;0.30;;;;;;;31.75;28.59;100992.66;5006209;28;20053;-85
2022/07/03 08:36:12;;;;;;;1.50;0.55;;;;;;;31.90;28.45;100990.34;5002430;28;20049;-84
2022/07/03 08:38:42;;;;;;;0.68;0.45;;;;;;;32.43;27.55;100991.66;4990111;28;20057;-85
2022/07/03 08:41:27;;;;;;;0.38;0.30;;;;;;;33.08;27.21;100986.19;4975437;28;20158;-84
2022/07/03 08:43:59;;;;;;;1.13;0.43;;;;;;;33.73;26.02;100981.56;4993217;28;20060;-86
2022/07/03 08:46:34;;;;;;;0.65;0.63;;;;;;;34.13;25.70;100986.47;4989591;28;20602;-86
2022/07/03 08:49:05;;;;;;;0.73;0.40;;;;;;;34.56;25.10;100986.56;5006054;28;20054;-85
2022/07/03 08:51:37;;;;;;;0.88;0.57;;;;;;;34.80;24.78;100987.66;4991046;28;20089;-86
2022/07/03 08:54:09;;;;;;;0.40;0.40;;;;;;;34.92;24.64;100988.22;4991469;28;20049;-86
2022/07/03 08:56:37;;;;;;;1.57;0.70;;;;;;;35.16;24.22;100984.69;4993256;28;20161;-86
2022/07/03 08:59:08;;;;;;;0.30;0.30;;;;;;;35.48;23.88;100991.22;4993782;28;20297;-84
2022/07/03 09:01:41;;;;;;;1.70;0.52;;;;;;;36.15;22.66;100987.44;4973144;28;20132;-86
2022/07/03 09:04:14;;;;;;;1.85;0.63;;;;;;;36.48;22.56;100986.50;5008644;28;20050;-85
2022/07/03 09:06:46;;;;;;;2.30;0.95;;;;;;;36.26;22.83;100997.97;4989014;28;20042;-87
2022/07/03 09:09:14;;;;;;;0.50;0.30;;;;;;;36.13;21.99;100991.34;4991986;28;20681;-83
2022/07/03 09:11:44;;;;;;;1.00;0.50;;;;;;;36.23;22.33;100989.28;4992992;28;20120;-83
2022/07/03 09:14:22;;;;;;;1.40;0.30;;;;;;;36.55;21.69;100988.34;4982502;28;20054;-86
2022/07/03 09:16:55;;;;;;;1.67;0.28;;;;;;;36.96;21.18;100989.22;5007183;28;20104;-84
2022/07/03 09:19:46;;;;;;;0.70;0.40;;;;;;;37.13;20.26;100982.63;4985960;28;20129;-84
2022/07/03 09:22:30;;;;;;;2.15;0.43;;;;;;;37.44;20.17;100984.47;4973540;28;20049;-84
2022/07/03 09:25:16;;;;;;;0.88;0.40;;;;;;;37.50;19.97;100985.63;5004496;28;20045;-87
2022/07/03 09:28:02;;;;;;;2.67;0.93;;;;;;;37.19;19.94;100984.63;4973493;28;20125;-86
2022/07/03 09:30:29;;;;;;;3.17;0.38;;;;;;;37.31;20.36;100985.06;4988619;28;20049;-87
2022/07/03 09:32:58;;;;;;;1.65;0.50;;;;;;;38.05;19.97;100978.97;4980477;28;20058;-85
2022/07/03 09:35:31;;;;;;;0.82;0.30;;;;;;;38.36;19.47;100977.13;5001013;28;20050;-87
2022/07/03 09:38:05;;;;;;;0.35;0.35;;;;;;;38.42;19.14;100968.13;4981771;28;20065;-87
2022/07/03 09:40:58;;;;;;;0.52;0.52;;;;;;;38.72;19.05;100969.00;4973962;28;20050;-88
2022/07/03 09:43:32;;;;;;;0.85;0.20;;;;;;;38.96;18.56;100977.88;4970597;28;20084;-85
2022/07/03 09:46:08;;;;;;;0.60;0.25;;;;;;;38.92;18.93;100983.91;4986348;28;20058;-89
2022/07/03 09:48:43;;;;;;;0.80;0.20;;;;;;;39.08;18.27;100991.91;4981698;28;20065;-90
2022/07/03 09:51:28;;;;;;;0.35;0.28;;;;;;;39.31;17.63;100980.78;5004310;28;20133;-90
2022/07/03 09:54:04;;;;;;;1.23;0.40;;;;;;;39.37;18.02;100984.63;5006530;28;20164;-87
2022/07/03 09:56:40;;;;;;;3.05;0.30;;;;;;;38.82;17.95;100987.81;5007790;28;20030;-90
2022/07/03 09:59:17;;;;;;;0.45;0.45;;;;;;;38.60;17.82;100989.63;5012469;28;20046;-85
2022/07/03 10:01:47;;;;;;;1.13;0.50;;;;;;;37.71;18.86;100984.94;4999443;28;20034;-86
2022/07/03 10:04:24;;;;;;;0.45;0.30;;;;;;;37.19;19.14;100987.34;5005839;28;20058;-88
2022/07/03 10:06:56;;;;;;;1.95;0.52;;;;;;;37.84;19.16;100989.78;5018272;28;20054;-91
2022/07/03 10:09:37;;;;;;;1.50;0.38;;;;;;;38.30;18.34;100984.19;4992383;28;20077;-87
2022/07/03 10:12:12;;;;;;;1.42;0.30;;;;;;;38.50;18.42;100983.59;5010103;28;20452;-89
2022/07/03 10:14:40;;;;;;;0.63;0.40;;;;;;;38.80;18.22;100989.91;4996324;28;20515;-88
2022/07/03 10:17:13;;;;;;;0.75;0.60;;;;;;;38.36;18.39;100977.13;5013450;28;20046;-88
2022/07/03 10:19:48;;;;;;;3.00;0.80;;;;;;;38.80;17.97;100973.50;5011678;28;20153;-88
2022/07/03 10:22:28;;;;;;;3.25;0.32;;;;;;;39.82;17.41;100976.19;4982729;28;20038;-87
2022/07/03 10:25:09;;;;;;;2.20;0.20;;;;;;;40.03;16.69;100976.09;4983169;28;20065;-85
2022/07/03 10:27:37;;;;;;;1.55;0.57;;;;;;;40.10;17.00;100981.66;4988262;28;20127;-91
2022/07/03 10:30:17;;;;;;;3.03;0.20;;;;;;;40.27;16.52;100973.94;5012427;28;20043;-90
2022/07/03 10:32:50;;;;;;;0.28;0.28;;;;;;;40.35;16.40;100971.06;5009205;28;20108;-88
2022/07/03 10:35:36;;;;;;;1.10;0.30;;;;;;;40.48;16.44;100974.91;4974979;28;20454;-87
2022/07/03 10:38:29;;;;;;;0.20;0.20;;;;;;;40.40;16.58;100980.56;5009923;28;20070;-88
2022/07/03 10:46:52;;;;;;;0.65;0.40;;;;;;;38.92;17.53;100971.09;5001116;28;20488;-84
2022/07/03 10:49:19;;;;;;;0.90;0.30;;;;;;;39.64;17.28;100965.72;4993866;28;20081;-86
2022/07/03 10:51:56;;;;;;;2.35;0.47;;;;;;;40.70;16.22;100967.41;4993382;28;20107;-87
2022/07/03 10:54:33;;;;;;;0.55;0.40;;;;;;;40.92;16.58;100965.34;4993266;28;20054;-88
2022/07/03 10:57:42;;;;;;;1.60;0.65;;;;;;;41.75;15.99;100955.97;5009089;28;20101;-92
2022/07/03 11:00:36;;;;;;;0.55;0.30;;;;;;;42.96;14.92;100956.41;5016846;28;20050;-88
2022/07/03 11:03:05;;;;;;;0.82;0.40;;;;;;;43.57;14.62;100954.09;4977590;28;20062;-87
2022/07/03 11:05:40;;;;;;;1.95;0.40;;;;;;;44.19;13.96;100952.41;4995191;28;20458;-87
2022/07/03 11:08:08;;;;;;;0.73;0.70;;;;;;;44.27;14.14;100954.84;4978883;28;20512;-86
2022/07/03 11:11:54;;;;;;;0.52;0.30;;;;;;;43.59;13.54;100946.41;4995767;28;20042;-91
2022/07/03 11:13:35;;;;;;;1.42;0.90;;;;;;;41.46;15.60;100949.84;5001950;28;20042;-85
2022/07/03 11:16:02;;;;;;;1.48;1.25;;;;;;;41.83;15.41;100946.69;5000144;28;20041;-89
2022/07/03 11:18:34;;;;;;;0.57;0.30;;;;;;;42.48;15.52;100935.69;4997034;28;20053;-83
2022/07/03 11:21:27;;;;;;;0.20;0.20;;;;;;;42.34;15.10;100946.97;4990721;28;20519;-87
2022/07/03 11:24:23;;;;;;;2.28;0.47;;;;;;;42.78;15.03;100946.13;4987044;28;20054;-86
2022/07/03 11:27:13;;;;;;;0.60;0.30;;;;;;;42.25;15.32;100944.47;4990985;28;20066;-88
2022/07/03 11:29:42;;;;;;;1.48;0.50;;;;;;;42.27;15.20;100946.97;5005323;28;20145;-85
2022/07/03 11:32:45;;;;;;;1.58;0.43;;;;;;;43.50;14.33;100945.03;4992479;28;20034;-88
2022/07/03 11:35:51;;;;;;;1.48;0.55;;;;;;;43.58;14.12;100938.38;4978682;28;20205;-88
2022/07/03 11:38:23;;;;;;;1.50;0.40;;;;;;;41.76;15.10;100938.41;4996025;28;20577;-84
2022/07/03 11:40:53;;;;;;;;;;;;;;;40.03;16.62;100936.91;4993147;28;20054;-91
2022/07/03 11:43:20;;;;;;;0.43;0.43;;;;;;;40.17;16.63;100935.09;4974034;28;20408;-87
2022/07/03 11:45:52;;;;;;;0.30;0.30;;;;;;;40.85;16.25;100932.41;4978550;28;20050;-85
2022/07/03 11:48:25;;;;;;;0.77;0.65;;;;;;;41.63;15.74;100935.66;4991486;28;20377;-90
2022/07/03 11:50:54;;;;;;;0.77;0.50;;;;;;;42.06;15.23;100937.94;4968704;28;20047;-85
2022/07/03 11:53:39;;;;;;;0.28;0.28;;;;;;;41.69;15.53;100937.56;4990636;28;20394;-87
2022/07/03 11:59:00;;;;;;;0.60;0.50;;;;;;;43.28;14.72;100928.84;4988574;28;20053;-89
2022/07/03 12:01:27;;;;;;;1.05;0.20;;;;;;;44.66;13.51;100918.69;4975356;28;20376;-85
2022/07/03 12:04:09;;;;;;;0.73;0.30;;;;;;;45.73;12.73;100922.50;4989456;28;20052;-85
2022/07/03 12:06:54;;;;;;;0.73;0.40;;;;;;;45.61;12.75;100928.03;4992485;28;20050;-88
2022/07/03 12:09:38;;;;;;;0.30;0.25;;;;;;;45.26;12.70;100931.59;4986003;28;20141;-85
2022/07/03 12:12:10;;;;;;;2.58;0.43;;;;;;;44.73;12.40;100924.97;4972027;28;20082;-86
2022/07/03 12:14:48;;;;;;;0.30;0.30;;;;;;;42.45;14.45;100927.88;4974659;28;20093;-85
2022/07/03 12:17:27;;;;;;;0.30;0.30;;;;;;;41.02;14.97;100929.31;4986091;28;20047;-86
2022/07/03 12:19:58;;;;;;;1.30;0.50;;;;;;;39.46;16.24;100930.56;4970586;28;20057;-87
2022/07/03 12:25:22;;;;;;;0.30;0.30;;;;;;;36.25;18.93;100936.31;4971777;28;20066;-86
2022/07/03 12:27:54;;;;;;;1.00;1.00;;;;;;;35.56;19.28;100925.88;4973201;28;20419;-87
2022/07/03 12:30:35;;;;;;;1.45;1.45;;;;;;;35.21;19.90;100924.34;4977841;28;20074;-87
2022/07/03 12:33:06;;;;;;;1.27;0.50;;;;;;;34.59;20.27;100912.81;4991365;28;20146;-86
2022/07/03 12:35:34;;;;;;;0.60;0.60;;;;;;;35.02;20.43;100920.06;4977470;28;20052;-88
2022/07/03 12:38:03;;;;;;;0.43;0.30;;;;;;;36.42;18.88;100909.84;4983080;28;20129;-83